»·PEaware :: N3610E KIZA-KSBA

N3610E :: KIZA-KSBA

FLIGHT INFORMATION

Flight Status: Arrived
Operator: Privately registered:
United States
More flights under this callsign
Pilot: John C. (12173)
Aircraft: CESSNA 172 SKYHAWK
(C172)
More flights by this aircraft type
Origin: KIZA Santa Ynez
United States
Destination: KSBA Santa Barbara Mun
United States
More flights between these airports :: More routes between these airports
Route: GVO
File this flight plan on PilotEdge
Remarks:
Altitude:
(Current/Filed)
7,000ft
Speed:
(Current/Filed)
100kts
Departed: 07-Jan-18 10:47 AM
Arrived: 07-Jan-18 12:02 PM
Distance/Time
Traveled:
16nm/1:15
Distance/Time
To Go:
Arrived

Flight Plot

Page will automatically refresh every two minutes.


Map Options




Map Legend


Flown Route
Filed Route
Departure Airport
Arrival Airport
Navaid (VOR, NDB)
Fix

Horizontal Profiles

Position Reports

Time Latitude Longitude Heading Altitude Ground
Speed
07-Jan-18 10:46 34.606738 -120.070902 188 669ft 0kts
07-Jan-18 10:47 34.606738 -120.070902 188 669ft 0kts
07-Jan-18 10:48 34.606738 -120.070902 188 669ft 0kts
07-Jan-18 10:49 34.606738 -120.070902 188 669ft 0kts
07-Jan-18 10:50 34.606738 -120.070902 188 669ft 0kts
07-Jan-18 10:51 34.606738 -120.070902 188 669ft 0kts
07-Jan-18 10:52 34.606558 -120.070945 193 670ft 9kts
07-Jan-18 10:53 34.608438 -120.089653 277 1188ft 83kts
07-Jan-18 10:54 34.610967 -120.117601 277 2273ft 85kts
07-Jan-18 10:55 34.613566 -120.145970 275 3297ft 86kts
07-Jan-18 10:56 34.616211 -120.174937 275 4288ft 87kts
07-Jan-18 10:57 34.626743 -120.195570 23 5196ft 91kts
07-Jan-18 10:58 34.621222 -120.171161 133 5988ft 102kts
07-Jan-18 10:59 34.598265 -120.146803 143 6071ft 114kts
07-Jan-18 11:00 34.571973 -120.123863 150 6053ft 117kts
07-Jan-18 11:01 34.545233 -120.101292 144 6014ft 118kts
07-Jan-18 11:02 34.526442 -120.070096 118 5966ft 117kts
07-Jan-18 11:03 34.512327 -120.036762 116 5930ft 116kts
07-Jan-18 11:04 34.498720 -120.009408 119 5932ft 117kts
07-Jan-18 11:05 34.487948 -119.983948 111 5955ft 116kts
07-Jan-18 11:06 34.476247 -119.960219 123 5964ft 116kts
07-Jan-18 11:07 34.466101 -119.936980 119 5978ft 114kts
07-Jan-18 11:08 34.458968 -119.913026 109 5983ft 111kts
07-Jan-18 11:09 34.450830 -119.886055 116 5932ft 111kts
07-Jan-18 11:10 34.440888 -119.862629 107 5900ft 111kts
07-Jan-18 11:11 34.433773 -119.836031 113 5948ft 109kts
07-Jan-18 11:12 34.423916 -119.809630 115 5965ft 110kts
07-Jan-18 11:13 34.411710 -119.782875 123 5999ft 109kts
07-Jan-18 11:14 34.400861 -119.755524 119 6024ft 110kts
07-Jan-18 11:15 34.389589 -119.727631 117 6059ft 109kts
07-Jan-18 11:16 34.379823 -119.699365 118 5862ft 111kts
07-Jan-18 11:17 34.367439 -119.673948 148 5298ft 107kts
07-Jan-18 11:18 34.346767 -119.663623 158 4824ft 102kts
07-Jan-18 11:19 34.334268 -119.644911 71 4232ft 109kts
07-Jan-18 11:20 34.353183 -119.643149 303 3704ft 115kts
07-Jan-18 11:21 34.359122 -119.671413 283 3113ft 111kts
07-Jan-18 11:22 34.366082 -119.698563 288 2497ft 110kts
07-Jan-18 11:23 34.375633 -119.723864 299 1892ft 110kts
07-Jan-18 11:24 34.388248 -119.753519 290 1236ft 105kts
07-Jan-18 11:25 34.399344 -119.785455 298 928ft 104kts
07-Jan-18 11:26 34.413149 -119.815324 299 1029ft 101kts
07-Jan-18 11:27 34.417658 -119.845456 210 1456ft 102kts
07-Jan-18 11:28 34.401331 -119.859320 213 2302ft 93kts
07-Jan-18 11:29 34.386214 -119.873821 213 2945ft 97kts
07-Jan-18 11:30 34.370204 -119.888621 213 3586ft 96kts
07-Jan-18 11:31 34.352701 -119.905088 216 3980ft 108kts
07-Jan-18 11:32 34.332533 -119.913159 138 3998ft 105kts
07-Jan-18 11:33 34.317513 -119.892722 138 4005ft 107kts
07-Jan-18 11:34 34.299980 -119.875659 145 4028ft 106kts
07-Jan-18 11:35 34.281634 -119.860662 143 4044ft 107kts
07-Jan-18 11:36 34.263729 -119.843903 130 4048ft 107kts
07-Jan-18 11:37 34.273561 -119.824341 352 4036ft 117kts
07-Jan-18 11:38 34.282483 -119.850146 269 4044ft 114kts
07-Jan-18 11:39 34.296824 -119.873871 345 3981ft 122kts
07-Jan-18 11:40 34.308586 -119.855858 124 3948ft 107kts
07-Jan-18 11:41 34.291634 -119.837163 141 4011ft 105kts
07-Jan-18 11:42 34.271465 -119.830088 217 3950ft 115kts
07-Jan-18 11:43 34.276626 -119.856667 310 4026ft 116kts
07-Jan-18 11:44 34.294235 -119.878842 292 4041ft 119kts
07-Jan-18 11:45 34.293201 -119.908787 260 4108ft 114kts
07-Jan-18 11:46 34.287148 -119.937779 242 4141ft 112kts
07-Jan-18 11:47 34.277981 -119.965256 250 4087ft 113kts
07-Jan-18 11:48 34.271752 -119.993809 258 3994ft 113kts
07-Jan-18 11:49 34.268139 -120.025046 267 3902ft 116kts
07-Jan-18 11:50 34.265045 -120.058820 257 3981ft 109kts
07-Jan-18 11:51 34.271627 -120.089460 352 3860ft 110kts
07-Jan-18 11:52 34.294196 -120.093657 359 3761ft 106kts
07-Jan-18 11:53 34.316226 -120.093964 2 3612ft 105kts
07-Jan-18 11:54 34.337351 -120.091158 15 3491ft 104kts
07-Jan-18 11:55 34.358202 -120.088194 350 3458ft 102kts
07-Jan-18 11:56 34.383436 -120.093774 356 3552ft 101kts
07-Jan-18 11:57 34.410616 -120.093361 1 3593ft 101kts
07-Jan-18 11:58 34.423843 -120.077017 95 3481ft 97kts
07-Jan-18 11:59 34.422750 -120.054808 90 3075ft 99kts
07-Jan-18 12:00 34.423892 -120.033629 86 2734ft 95kts
07-Jan-18 12:01 34.424164 -120.013463 92 2444ft 94kts
07-Jan-18 12:02 34.425151 -119.992614 84 2155ft 94kts
07-Jan-18 12:03 34.425144 -119.970574 92 1850ft 93kts
07-Jan-18 12:04 34.425608 -119.949147 92 1556ft 91kts
07-Jan-18 12:05 34.425936 -119.927305 90 1215ft 92kts
07-Jan-18 12:06 34.426349 -119.899158 87 779ft 91kts
07-Jan-18 12:07 34.427484 -119.868654 84 258ft 91kts
07-Jan-18 12:08 34.427686 -119.847172 76 11ft 22kts
07-Jan-18 12:09 34.428421 -119.845616 61 11ft 1kts
07-Jan-18 12:10 34.429819 -119.842076 65 11ft 0kts
07-Jan-18 12:11 34.431592 -119.836835 69 14ft 28kts
07-Jan-18 12:12 34.432578 -119.834772 354 14ft 0kts
07-Jan-18 12:13 34.432578 -119.834772 354 14ft 0kts

Navigation Log

Ident Type
1. KIZA Airport
2. GVO Navaid
3. KSBA Airport